North Sioux City, South Dakota
Current Conditions -  °F | °C
As of 1:52 AM on Friday 24 Oct 2014 (Local Time) from KSUX Reporting Station
Clear Clear  
Wind Chill: 50°   Ceiling: Unl
Heat Index: 50°   Visibility: 10mi
Dew Point: 47°   Wind: 7mph
Humidity: 89%   Direction: 120°ESE
Pressure: 29.94"   Gusts: NA
Location:  42.53°N, 96.48°W
Report Text: KSUX 240652Z 12006KT 10SM CLR 10/08 A2994 RMK AO2 SLP138 T01000083
Loading
Personal Weather Stations






























Interactive Weather Map
Tropical Storm Tracking
New forecast layout! Learn more

10-Day Weather Forecast

Advertisements
Track Severe Weather on mobile